TAF Text Data
IDs:
Format:
Raw Decoded Include METAR

Data at: 0246 UTC 29 Nov 2020

KCSV 282320Z 2900/2924 04003KT P6SM SCT200
  FM291000 00000KT 5SM BR SCT200
  FM291400 13005KT P6SM SCT025 SCT150
  FM292200 16006KT P6SM VCSH BKN025 OVC040